Time;durP1;ratioP1;P1;durP2;ratioP2;P2;SDS_P1;SDS_P2;PMS_P1;PMS_P2;Temp;Humidity;BMP_temperature;BMP_pressure;BME280_temperature;BME280_humidity;BME280_pressure;Samples;Min_cycle;Max_cycle;Signal;HPM_P1;HPM_P2
2022/01/19 00:01:23;;;;;;;26.10;8.93;;;4.30;99.90;;;;;;4138202;28;20125;-83
2022/01/19 00:03:24;;;;;;;25.45;8.70;;;5.70;99.90;;;;;;4115974;28;20055;-83
2022/01/19 00:05:26;;;;;;;26.73;9.63;;;4.30;99.90;;;;;;4149301;28;20041;-83
2022/01/19 00:07:27;;;;;;;29.50;10.05;;;5.00;99.90;;;;;;4131187;28;20181;-83
2022/01/19 00:09:27;;;;;;;29.20;9.18;;;4.40;99.90;;;;;;4146961;28;20057;-83
2022/01/19 00:11:28;;;;;;;25.80;8.18;;;4.30;99.90;;;;;;4148772;28;20038;-83
2022/01/19 00:13:29;;;;;;;24.45;8.55;;;4.30;99.90;;;;;;4131305;28;20054;-83
2022/01/19 00:15:30;;;;;;;22.10;8.48;;;5.30;99.90;;;;;;4148429;28;20121;-83
2022/01/19 00:17:31;;;;;;;23.48;8.68;;;4.80;99.90;;;;;;4131255;28;20053;-83
2022/01/19 00:19:32;;;;;;;26.85;9.02;;;5.70;99.90;;;;;;4130939;28;20050;-84
2022/01/19 00:21:35;;;;;;;24.80;8.63;;;5.30;99.90;;;;;;4148466;28;20042;-83
2022/01/19 00:23:36;;;;;;;23.75;7.95;;;4.30;99.90;;;;;;4130665;28;20050;-83
2022/01/19 00:25:38;;;;;;;23.80;7.80;;;4.30;99.90;;;;;;4148693;28;20084;-83
2022/01/19 00:27:39;;;;;;;21.98;7.35;;;4.20;99.90;;;;;;4129483;28;20125;-83
2022/01/19 00:29:40;;;;;;;26.40;8.20;;;4.90;99.90;;;;;;4148743;28;20045;-83
2022/01/19 00:31:40;;;;;;;26.50;9.05;;;5.00;99.90;;;;;;4148232;28;20422;-83
2022/01/19 00:33:41;;;;;;;32.95;11.35;;;4.70;99.90;;;;;;4130874;28;20046;-83
2022/01/19 00:35:42;;;;;;;22.40;8.00;;;5.40;99.90;;;;;;4130952;28;20086;-83
2022/01/19 00:37:43;;;;;;;25.98;8.55;;;5.10;99.90;;;;;;4148663;28;20049;-83
2022/01/19 00:39:44;;;;;;;22.05;7.40;;;5.00;99.90;;;;;;4148105;28;20038;-83
2022/01/19 00:41:45;;;;;;;22.50;7.45;;;4.10;99.90;;;;;;4130640;28;20046;-83
2022/01/19 00:43:47;;;;;;;25.45;7.82;;;3.80;99.90;;;;;;4131205;28;20086;-83
2022/01/19 00:45:49;;;;;;;21.25;8.10;;;5.20;99.90;;;;;;4146575;28;20073;-83
2022/01/19 00:47:50;;;;;;;24.17;8.23;;;4.10;99.90;;;;;;4148217;28;20046;-83
2022/01/19 00:49:51;;;;;;;19.88;7.15;;;4.50;99.90;;;;;;4133941;28;20162;-83
2022/01/19 00:51:52;;;;;;;24.15;7.88;;;5.60;99.90;;;;;;4130750;28;20454;-83
2022/01/19 00:53:52;;;;;;;25.45;7.93;;;4.90;99.90;;;;;;4130529;28;20230;-83
2022/01/19 00:55:53;;;;;;;19.52;6.53;;;5.50;99.90;;;;;;4148643;28;20518;-83
2022/01/19 00:57:56;;;;;;;22.05;7.65;;;4.50;99.90;;;;;;4130180;28;20101;-83
2022/01/19 01:00:01;;;;;;;21.67;8.38;;;3.20;99.90;;;;;;4148337;28;20061;-83
2022/01/19 01:02:04;;;;;;;21.10;6.97;;;4.00;99.90;;;;;;4114410;28;20046;-83
2022/01/19 01:04:08;;;;;;;24.30;7.55;;;4.00;99.90;;;;;;4120031;28;20046;-83
2022/01/19 01:06:09;;;;;;;25.80;7.93;;;4.50;99.90;;;;;;4148096;28;20049;-83
2022/01/19 01:08:10;;;;;;;25.05;7.70;;;4.20;99.90;;;;;;4130883;28;20054;-83
2022/01/19 01:10:14;;;;;;;22.77;7.45;;;5.40;99.90;;;;;;4130964;28;20435;-84
2022/01/19 01:12:41;;;;;;;24.77;8.70;;;5.30;99.90;;;;;;4148170;28;20049;-84
2022/01/19 01:19:31;;;;;;;30.23;8.35;;;3.90;99.90;;;;;;4096444;28;20757;-84
2022/01/19 01:21:32;;;;;;;26.95;8.88;;;3.50;99.90;;;;;;4146096;28;20112;-84
2022/01/19 01:23:35;;;;;;;23.48;8.18;;;5.10;99.90;;;;;;4148434;28;20034;-82
2022/01/19 01:25:38;;;;;;;30.25;9.13;;;4.70;99.90;;;;;;4148042;28;20117;-82
2022/01/19 01:27:39;;;;;;;29.92;9.38;;;3.90;99.90;;;;;;4148041;28;20104;-82
2022/01/19 01:29:41;;;;;;;28.58;9.27;;;4.20;99.90;;;;;;4130632;28;20479;-82
2022/01/19 01:31:42;;;;;;;30.73;9.25;;;5.20;99.90;;;;;;4147658;28;20486;-82
2022/01/19 01:33:43;;;;;;;28.13;10.05;;;3.80;99.90;;;;;;4147902;28;20045;-82
2022/01/19 01:35:44;;;;;;;24.65;8.85;;;3.80;99.90;;;;;;4148047;28;20474;-82
2022/01/19 01:37:44;;;;;;;32.20;7.97;;;4.30;99.90;;;;;;4135761;28;20056;-82
2022/01/19 01:39:46;;;;;;;36.15;9.43;;;4.70;99.90;;;;;;4148093;28;20037;-82
2022/01/19 01:41:47;;;;;;;37.00;9.75;;;4.00;99.90;;;;;;4146840;28;20053;-82
2022/01/19 01:43:47;;;;;;;33.08;9.15;;;3.80;99.90;;;;;;4130390;28;20530;-82
2022/01/19 01:45:56;;;;;;;29.27;8.93;;;3.80;99.90;;;;;;4132804;28;20124;-83
2022/01/19 01:48:06;;;;;;;41.30;8.88;;;3.80;99.90;;;;;;4160917;28;20115;-83
2022/01/19 01:54:28;;;;;;;32.97;9.88;;;4.60;99.90;;;;;;4129999;28;20110;-83
2022/01/19 01:56:29;;;;;;;32.70;9.73;;;3.80;99.90;;;;;;4148775;28;20502;-83
2022/01/19 01:58:35;;;;;;;30.75;9.07;;;3.80;99.90;;;;;;4130676;28;20043;-83
2022/01/19 02:00:37;;;;;;;29.27;8.93;;;3.80;99.90;;;;;;4151647;28;20050;-82
2022/01/19 02:02:40;;;;;;;32.90;10.10;;;3.80;99.90;;;;;;4118232;28;20050;-84
2022/01/19 02:04:43;;;;;;;41.53;10.85;;;3.80;99.90;;;;;;4151090;28;20068;-84
2022/01/19 02:09:16;;;;;;;36.13;10.77;;;3.80;99.90;;;;;;4150465;28;20510;-84
2022/01/19 02:15:49;;;;;;;37.65;9.65;;;3.80;99.90;;;;;;4150973;28;20042;-84
2022/01/19 02:23:01;;;;;;;39.55;10.00;;;3.80;99.90;;;;;;4151027;28;20042;-82
2022/01/19 02:25:04;;;;;;;35.42;10.02;;;3.80;99.90;;;;;;4132891;28;20053;-82
2022/01/19 02:27:13;;;;;;;33.85;10.30;;;3.80;99.90;;;;;;4150310;28;20034;-83
2022/01/19 02:40:49;;;;;;;37.78;10.40;;;3.90;99.90;;;;;;4133595;28;20228;-82
2022/01/19 02:42:55;;;;;;;34.50;9.50;;;3.90;99.90;;;;;;4127315;28;20046;-82
2022/01/19 02:49:18;;;;;;;40.47;10.55;;;4.90;99.90;;;;;;4132020;28;20058;-82
2022/01/19 02:51:19;;;;;;;32.55;10.82;;;4.10;99.90;;;;;;4135371;28;20121;-82
2022/01/19 02:53:19;;;;;;;36.80;12.30;;;4.00;99.90;;;;;;4134596;28;20042;-82
2022/01/19 02:55:20;;;;;;;38.33;11.18;;;4.00;99.90;;;;;;4133711;28;20112;-82
2022/01/19 02:57:25;;;;;;;34.53;9.63;;;4.00;99.90;;;;;;4134391;28;20050;-82
2022/01/19 02:59:41;;;;;;;36.53;10.88;;;4.00;99.90;;;;;;4134258;28;20057;-82
2022/01/19 03:08:47;;;;;;;37.42;10.38;;;4.00;99.90;;;;;;4116331;28;20090;-82
2022/01/19 03:10:47;;;;;;;35.95;11.18;;;4.00;99.90;;;;;;4099091;28;20047;-83
2022/01/19 03:12:49;;;;;;;41.47;12.05;;;4.00;99.90;;;;;;4125599;28;20101;-82
2022/01/19 03:14:51;;;;;;;40.42;11.10;;;4.00;99.90;;;;;;4131322;28;20138;-82
2022/01/19 03:16:51;;;;;;;46.35;11.65;;;5.00;99.90;;;;;;4132769;28;20046;-82
2022/01/19 03:18:53;;;;;;;49.72;12.63;;;4.00;99.90;;;;;;4131784;28;20104;-82
2022/01/19 03:20:55;;;;;;;43.55;10.95;;;4.10;99.90;;;;;;4132372;28;20050;-83
2022/01/19 03:23:06;;;;;;;47.08;11.80;;;4.00;99.90;;;;;;4116043;28;20050;-82
2022/01/19 03:25:12;;;;;;;50.28;11.23;;;4.10;99.90;;;;;;4132234;28;20054;-82
2022/01/19 03:27:13;;;;;;;39.75;10.98;;;4.00;99.90;;;;;;4116147;28;20133;-82
2022/01/19 03:29:15;;;;;;;41.47;10.55;;;4.00;99.90;;;;;;4131010;28;20049;-82
2022/01/19 03:31:15;;;;;;;49.80;12.05;;;5.30;99.90;;;;;;4133026;28;20042;-82
2022/01/19 03:33:16;;;;;;;46.45;10.68;;;4.00;99.90;;;;;;4133401;28;20065;-83
2022/01/19 03:35:18;;;;;;;34.72;10.30;;;4.80;99.90;;;;;;4131696;28;20054;-83
2022/01/19 03:37:19;;;;;;;49.90;11.43;;;4.50;99.90;;;;;;4131894;28;20038;-83
2022/01/19 03:39:19;;;;;;;41.47;11.93;;;4.00;99.90;;;;;;4133027;28;20038;-82
2022/01/19 03:41:21;;;;;;;34.85;10.50;;;4.00;99.90;;;;;;4131856;28;20038;-83
2022/01/19 03:43:22;;;;;;;32.40;9.93;;;4.00;99.90;;;;;;4132918;28;20046;-83
2022/01/19 03:45:23;;;;;;;46.72;11.63;;;4.40;99.90;;;;;;4131920;28;20372;-83
2022/01/19 03:47:26;;;;;;;46.85;10.07;;;4.60;99.90;;;;;;4115836;28;20090;-83
2022/01/19 03:49:29;;;;;;;48.45;12.23;;;4.00;99.90;;;;;;4115021;28;20051;-83
2022/01/19 03:51:31;;;;;;;39.60;10.55;;;4.00;99.90;;;;;;4131692;28;20050;-83
2022/01/19 03:53:32;;;;;;;39.28;10.18;;;5.00;99.90;;;;;;4132183;28;20085;-83
2022/01/19 03:55:33;;;;;;;51.45;10.57;;;4.30;99.90;;;;;;4131947;28;20054;-83
2022/01/19 03:57:35;;;;;;;43.65;11.32;;;4.10;99.90;;;;;;4116009;28;20142;-82
2022/01/19 03:59:35;;;;;;;37.97;10.40;;;4.00;99.90;;;;;;4133358;28;20042;-83
2022/01/19 04:01:36;;;;;;;41.60;10.55;;;4.00;99.90;;;;;;4131848;28;20046;-83
2022/01/19 04:06:16;;;;;;;34.42;10.23;;;4.00;99.90;;;;;;4132682;28;20414;-83
2022/01/19 04:08:06;;;;;;;42.65;10.45;;;3.90;99.90;;;;;;4132605;28;20057;-83
2022/01/19 04:10:07;;;;;;;36.63;8.90;;;3.90;99.90;;;;;;4133088;28;20061;-83
2022/01/19 04:12:14;;;;;;;41.65;9.82;;;3.90;99.90;;;;;;4116338;28;20055;-83
2022/01/19 04:14:21;;;;;;;43.33;12.18;;;3.90;99.90;;;;;;4133169;28;20051;-82
2022/01/19 04:16:23;;;;;;;49.40;11.68;;;5.00;99.90;;;;;;4115807;28;20078;-83
2022/01/19 04:18:24;;;;;;;45.50;11.82;;;4.50;99.90;;;;;;4114497;28;20042;-83
2022/01/19 04:20:26;;;;;;;36.17;11.10;;;3.90;99.90;;;;;;4132762;28;20153;-83
2022/01/19 04:22:28;;;;;;;30.50;10.05;;;3.90;99.90;;;;;;4131418;28;20112;-83
2022/01/19 04:24:29;;;;;;;32.50;11.25;;;4.00;99.90;;;;;;4132897;28;20053;-83
2022/01/19 04:26:32;;;;;;;36.38;12.30;;;5.00;99.90;;;;;;4131762;28;20578;-83
2022/01/19 04:28:33;;;;;;;42.92;10.98;;;4.20;99.90;;;;;;4131381;28;20117;-83
2022/01/19 04:30:35;;;;;;;41.97;11.68;;;3.90;99.90;;;;;;4132889;28;20046;-83
2022/01/19 04:34:39;;;;;;;40.20;11.25;;;3.90;99.90;;;;;;4140508;28;20129;-83
2022/01/19 04:37:19;;;;;;;57.13;12.18;;;3.90;99.90;;;;;;4148762;28;20046;-83
2022/01/19 04:48:58;;;;;;;39.03;9.20;;;4.70;99.90;;;;;;4131596;28;20495;-83
2022/01/19 05:04:54;;;;;;;48.33;10.05;;;3.80;99.90;;;;;;4145607;28;20050;-83
2022/01/19 05:07:26;;;;;;;38.22;10.02;;;3.90;99.90;;;;;;4124193;28;20050;-83
2022/01/19 05:13:50;;;;;;;35.15;10.07;;;4.70;99.90;;;;;;4147934;28;20108;-83
2022/01/19 05:15:52;;;;;;;41.45;10.25;;;3.90;99.90;;;;;;4114779;28;20049;-83
2022/01/19 05:17:53;;;;;;;38.60;10.77;;;3.90;99.90;;;;;;4115401;28;20054;-82
2022/01/19 05:19:54;;;;;;;45.78;10.60;;;4.20;99.90;;;;;;4163839;28;20459;-83
2022/01/19 05:21:54;;;;;;;38.53;12.50;;;3.90;99.90;;;;;;4156438;28;20048;-83
2022/01/19 05:24:03;;;;;;;42.30;10.93;;;4.60;99.90;;;;;;4114479;28;20110;-83
2022/01/19 05:26:04;;;;;;;29.08;9.73;;;3.90;99.90;;;;;;4129107;28;20537;-83
2022/01/19 05:28:06;;;;;;;37.25;11.13;;;4.10;99.90;;;;;;4130038;28;20050;-83
2022/01/19 05:30:07;;;;;;;31.88;10.77;;;3.90;99.90;;;;;;4147438;28;20453;-82
2022/01/19 05:32:08;;;;;;;37.72;10.75;;;3.90;99.90;;;;;;4130380;28;20061;-83
2022/01/19 05:34:08;;;;;;;33.20;9.38;;;3.90;99.90;;;;;;4146259;28;20061;-83
2022/01/19 05:36:12;;;;;;;33.30;12.57;;;3.90;99.90;;;;;;4130187;28;20518;-82
2022/01/19 05:38:14;;;;;;;34.70;10.80;;;3.90;99.90;;;;;;4130426;28;20057;-83
2022/01/19 05:40:16;;;;;;;29.10;9.27;;;4.00;99.90;;;;;;4125387;28;20042;-84
2022/01/19 05:42:18;;;;;;;37.13;11.57;;;4.00;99.90;;;;;;4124489;28;20050;-82
2022/01/19 05:44:22;;;;;;;31.63;9.88;;;4.10;99.90;;;;;;4114436;28;20074;-83
2022/01/19 05:46:23;;;;;;;28.58;9.82;;;3.90;99.90;;;;;;4129925;28;20062;-82
2022/01/19 05:48:24;;;;;;;34.78;10.82;;;4.00;99.90;;;;;;4147252;28;20052;-84
2022/01/19 05:50:25;;;;;;;31.38;10.05;;;4.00;99.90;;;;;;4130009;28;20128;-84
2022/01/19 05:52:26;;;;;;;42.22;10.98;;;4.00;99.90;;;;;;4113804;28;20054;-84
2022/01/19 05:54:26;;;;;;;41.17;10.73;;;4.00;99.90;;;;;;4113558;28;20129;-84
2022/01/19 05:56:28;;;;;;;28.67;9.43;;;4.00;99.90;;;;;;4098778;29;20047;-83
2022/01/19 05:58:29;;;;;;;29.73;9.88;;;4.00;99.90;;;;;;4141796;28;20046;-83
2022/01/19 06:00:31;;;;;;;31.95;10.25;;;4.00;99.90;;;;;;4146311;28;20038;-82
2022/01/19 06:02:31;;;;;;;36.17;9.88;;;4.00;99.90;;;;;;4131505;28;20488;-83
2022/01/19 06:04:32;;;;;;;38.95;9.70;;;5.20;99.90;;;;;;4131349;28;20518;-83
2022/01/19 06:06:33;;;;;;;29.85;9.40;;;4.00;99.90;;;;;;4131289;28;20051;-83
2022/01/19 06:08:44;;;;;;;31.17;9.57;;;4.50;99.90;;;;;;4130362;28;20105;-83
2022/01/19 06:10:45;;;;;;;36.15;10.27;;;4.00;99.90;;;;;;4148128;28;20081;-83
2022/01/19 06:12:55;;;;;;;29.58;9.95;;;3.90;99.90;;;;;;4119307;28;20126;-84
2022/01/19 06:14:56;;;;;;;31.73;8.77;;;3.80;99.90;;;;;;4162913;28;20584;-84
2022/01/19 06:16:57;;;;;;;32.30;9.30;;;3.90;99.90;;;;;;4132200;28;20147;-83
2022/01/19 06:18:57;;;;;;;35.35;10.13;;;3.90;99.90;;;;;;4139667;28;20116;-83
2022/01/19 06:20:58;;;;;;;35.47;10.35;;;3.90;99.90;;;;;;4130252;28;20050;-83
2022/01/19 06:22:59;;;;;;;38.75;11.32;;;3.80;99.90;;;;;;4130348;28;20415;-81
2022/01/19 06:25:09;;;;;;;33.42;10.07;;;5.30;99.90;;;;;;4125772;28;20109;-83
2022/01/19 06:27:11;;;;;;;30.90;9.95;;;4.60;99.90;;;;;;4119616;28;20039;-83
2022/01/19 06:29:11;;;;;;;30.15;11.02;;;4.90;99.90;;;;;;4147419;28;20045;-83
2022/01/19 06:31:12;;;;;;;27.95;9.90;;;4.00;99.90;;;;;;4125810;28;20043;-83
2022/01/19 06:33:14;;;;;;;33.92;10.48;;;3.90;99.90;;;;;;4131879;28;20538;-83
2022/01/19 06:35:15;;;;;;;35.63;11.23;;;3.90;99.90;;;;;;4146935;28;20514;-83
2022/01/19 06:37:16;;;;;;;34.25;11.32;;;4.20;99.90;;;;;;4129979;28;20057;-82
2022/01/19 06:39:17;;;;;;;40.45;10.55;;;3.90;99.90;;;;;;4147750;28;20162;-83
2022/01/19 06:41:18;;;;;;;31.40;10.05;;;4.40;99.90;;;;;;4147428;28;20077;-83
2022/01/19 06:43:19;;;;;;;40.03;12.10;;;4.40;99.90;;;;;;4147269;28;20493;-83
2022/01/19 06:45:22;;;;;;;35.22;10.63;;;5.00;99.90;;;;;;4129947;28;20054;-83
2022/01/19 06:47:25;;;;;;;35.47;10.52;;;4.80;99.90;;;;;;4150345;28;20049;-83
2022/01/19 06:49:26;;;;;;;36.42;9.80;;;4.70;99.90;;;;;;4133470;28;20562;-83
2022/01/19 06:51:26;;;;;;;36.38;10.52;;;3.90;99.90;;;;;;4131572;28;20146;-83
2022/01/19 06:53:27;;;;;;;31.65;9.40;;;4.50;99.90;;;;;;4149621;28;20554;-83
2022/01/19 06:55:37;;;;;;;32.72;10.18;;;3.90;99.90;;;;;;4127796;28;20419;-83
2022/01/19 06:57:38;;;;;;;29.95;9.82;;;4.10;99.90;;;;;;4140743;28;20038;-83
2022/01/19 06:59:39;;;;;;;33.60;10.25;;;4.90;99.90;;;;;;4148949;28;20117;-83
2022/01/19 07:01:40;;;;;;;29.70;9.23;;;4.50;99.90;;;;;;4143704;28;20088;-83
2022/01/19 07:03:42;;;;;;;32.33;10.90;;;4.40;99.90;;;;;;4150769;28;20038;-83
2022/01/19 07:05:43;;;;;;;33.10;10.68;;;5.30;99.90;;;;;;4150976;28;20042;-82
2022/01/19 07:07:43;;;;;;;31.17;10.52;;;5.00;99.90;;;;;;4149307;28;20103;-82
2022/01/19 07:09:46;;;;;;;31.58;10.63;;;3.80;99.90;;;;;;4150141;28;20107;-83
2022/01/19 07:11:47;;;;;;;38.53;11.85;;;5.30;99.90;;;;;;4117138;28;20500;-82
2022/01/19 07:13:48;;;;;;;35.95;11.63;;;4.30;99.90;;;;;;4150611;28;20107;-83
2022/01/19 07:15:49;;;;;;;33.58;9.55;;;4.50;99.90;;;;;;4156829;28;20053;-82
2022/01/19 07:17:53;;;;;;;35.25;10.68;;;4.50;99.90;;;;;;4166504;28;20041;-83
2022/01/19 07:19:57;;;;;;;35.70;10.85;;;4.00;99.90;;;;;;4143308;28;20057;-82
2022/01/19 07:21:58;;;;;;;36.03;11.18;;;4.10;99.90;;;;;;4122896;28;20185;-82
2022/01/19 07:23:59;;;;;;;35.90;10.60;;;4.90;99.90;;;;;;4133894;28;20454;-82
2022/01/19 07:26:00;;;;;;;36.30;10.35;;;5.40;99.90;;;;;;4146111;28;20050;-82
2022/01/19 07:28:01;;;;;;;33.28;10.85;;;3.70;99.90;;;;;;4124704;28;20050;-82
2022/01/19 07:30:06;;;;;;;28.30;9.75;;;4.50;99.90;;;;;;4166193;28;20052;-82
2022/01/19 07:32:09;;;;;;;34.90;10.68;;;4.00;99.90;;;;;;4139239;28;20058;-82
2022/01/19 07:34:10;;;;;;;31.27;10.80;;;3.90;99.90;;;;;;4119362;28;20090;-82
2022/01/19 07:36:11;;;;;;;31.77;11.75;;;3.70;99.90;;;;;;4150056;28;20077;-82
2022/01/19 07:38:12;;;;;;;38.13;10.30;;;4.90;99.90;;;;;;4149688;28;20886;-82
2022/01/19 07:40:13;;;;;;;38.40;11.95;;;3.90;99.90;;;;;;4148765;28;20041;-82
2022/01/19 07:42:14;;;;;;;30.70;10.25;;;4.50;99.90;;;;;;4132188;28;20046;-83
2022/01/19 07:44:15;;;;;;;38.30;11.10;;;;;;;;;;4149603;28;20053;-83
2022/01/19 07:46:17;;;;;;;39.85;10.63;;;3.90;99.90;;;;;;4131874;28;20061;-82
2022/01/19 07:48:18;;;;;;;30.55;10.10;;;5.40;99.90;;;;;;4132316;28;20054;-83
2022/01/19 07:50:23;;;;;;;34.67;11.20;;;4.50;99.90;;;;;;4114301;28;20054;-83
2022/01/19 07:52:25;;;;;;;29.40;10.57;;;3.90;99.90;;;;;;4145144;28;20042;-83
2022/01/19 07:54:26;;;;;;;34.72;12.40;;;4.50;99.90;;;;;;4132433;28;20046;-83
2022/01/19 07:56:27;;;;;;;34.75;12.10;;;4.20;99.90;;;;;;4148254;28;20096;-83
2022/01/19 07:58:28;;;;;;;34.67;10.85;;;3.90;99.90;;;;;;4141549;28;20052;-84
2022/01/19 08:00:29;;;;;;;32.35;12.32;;;4.00;99.90;;;;;;4163590;28;20494;-83
2022/01/19 08:02:33;;;;;;;30.75;10.70;;;4.50;99.90;;;;;;4133384;28;20126;-83
2022/01/19 08:04:33;;;;;;;27.95;10.75;;;4.50;99.90;;;;;;4128298;28;20090;-83
2022/01/19 08:06:44;;;;;;;37.33;11.32;;;5.00;99.90;;;;;;4133492;28;20069;-83
2022/01/19 08:08:45;;;;;;;30.80;10.38;;;3.80;99.90;;;;;;4119712;28;20109;-83
2022/01/19 08:10:51;;;;;;;38.70;11.02;;;5.20;99.90;;;;;;4115709;28;20050;-83
2022/01/19 08:12:52;;;;;;;34.30;10.48;;;4.30;99.90;;;;;;4119394;28;20066;-85
2022/01/19 08:14:53;;;;;;;34.20;12.60;;;3.90;99.90;;;;;;4125557;28;20058;-85
2022/01/19 08:16:55;;;;;;;44.28;11.80;;;5.00;99.90;;;;;;4150314;28;20092;-88
2022/01/19 08:18:56;;;;;;;32.03;10.35;;;4.90;99.90;;;;;;4131714;28;20042;-85
2022/01/19 08:20:57;;;;;;;35.72;11.45;;;4.40;99.90;;;;;;4143329;28;20052;-86
2022/01/19 08:22:58;;;;;;;32.65;10.68;;;4.70;99.90;;;;;;4131813;28;20046;-85
2022/01/19 08:24:58;;;;;;;39.20;12.18;;;4.60;99.90;;;;;;4148284;28;20042;-86
2022/01/19 08:27:00;;;;;;;34.35;12.40;;;4.60;99.90;;;;;;4144071;28;20046;-86
2022/01/19 08:29:01;;;;;;;47.25;11.38;;;4.10;99.90;;;;;;4133020;28;20038;-86
2022/01/19 08:31:02;;;;;;;37.33;12.15;;;4.50;99.90;;;;;;4115296;28;20038;-83
2022/01/19 08:33:03;;;;;;;29.85;11.43;;;4.20;99.90;;;;;;4145471;28;20034;-84
2022/01/19 08:35:05;;;;;;;34.08;11.18;;;3.80;99.90;;;;;;4122174;28;20078;-85
2022/01/19 08:37:08;;;;;;;40.50;12.98;;;4.20;99.90;;;;;;4144210;28;20064;-86
2022/01/19 08:39:11;;;;;;;42.45;12.05;;;5.50;99.90;;;;;;4137900;28;20054;-85
2022/01/19 08:41:12;;;;;;;33.88;11.38;;;4.20;99.90;;;;;;4127421;28;20055;-85
2022/01/19 08:43:14;;;;;;;41.08;12.98;;;4.20;99.90;;;;;;4166623;28;20049;-85
2022/01/19 08:45:17;;;;;;;38.38;12.20;;;4.30;99.90;;;;;;4164902;28;20486;-86
2022/01/19 08:47:17;;;;;;;42.75;13.18;;;4.50;99.90;;;;;;4150420;28;20482;-85
2022/01/19 08:49:18;;;;;;;40.53;11.90;;;5.30;99.90;;;;;;4132926;28;20051;-86
2022/01/19 08:51:19;;;;;;;35.05;11.95;;;5.10;99.90;;;;;;4132363;28;20968;-85
2022/01/19 08:53:20;;;;;;;33.78;12.60;;;4.40;99.90;;;;;;4150466;28;20045;-86
2022/01/19 08:55:21;;;;;;;39.05;11.18;;;5.50;99.90;;;;;;4115460;28;20082;-85
2022/01/19 08:57:24;;;;;;;34.13;11.30;;;4.50;99.90;;;;;;4116723;28;20039;-86
2022/01/19 08:59:26;;;;;;;32.83;12.80;;;5.80;99.90;;;;;;4131886;28;20158;-86
2022/01/19 09:01:26;;;;;;;38.90;12.70;;;5.40;99.90;;;;;;4124943;28;20046;-85
2022/01/19 09:03:28;;;;;;;38.67;12.80;;;4.70;99.90;;;;;;4120005;28;20062;-85
2022/01/19 09:05:29;;;;;;;38.90;12.00;;;4.60;99.90;;;;;;4125298;28;20053;-85
2022/01/19 09:07:33;;;;;;;42.42;11.95;;;4.70;99.90;;;;;;4125339;28;20054;-86
2022/01/19 09:09:34;;;;;;;41.35;13.68;;;4.60;99.90;;;;;;4125557;28;20057;-86
2022/01/19 09:11:38;;;;;;;33.67;12.18;;;4.20;99.90;;;;;;4135004;28;20064;-84
2022/01/19 09:13:40;;;;;;;42.85;12.80;;;5.40;99.90;;;;;;4125255;28;20432;-86
2022/01/19 09:15:48;;;;;;;36.70;12.77;;;4.70;99.90;;;;;;4137800;28;20057;-86
2022/01/19 09:17:56;;;;;;;42.25;12.75;;;4.70;99.90;;;;;;4138488;28;20074;-88
2022/01/19 09:19:59;;;;;;;41.47;13.02;;;5.60;99.90;;;;;;4153602;28;20049;-88
2022/01/19 09:22:02;;;;;;;35.80;11.82;;;4.70;99.90;;;;;;4122965;28;20126;-87
2022/01/19 09:24:03;;;;;;;35.20;11.60;;;4.80;99.90;;;;;;4123427;28;20100;-89
2022/01/19 09:26:05;;;;;;;36.97;13.13;;;4.80;99.90;;;;;;4130783;28;20050;-84
2022/01/19 09:28:07;;;;;;;34.88;11.52;;;4.80;99.90;;;;;;4131417;28;20053;-84
2022/01/19 09:30:21;;;;;;;39.47;12.65;;;4.50;99.90;;;;;;4148706;28;20038;-83
2022/01/19 09:32:22;;;;;;;34.85;11.95;;;5.60;99.90;;;;;;4127515;28;20046;-85
2022/01/19 09:34:24;;;;;;;35.00;11.90;;;5.80;99.90;;;;;;4122929;28;20051;-85
2022/01/19 09:36:33;;;;;;;38.20;12.35;;;6.00;99.90;;;;;;4116872;28;20053;-85
2022/01/19 09:38:36;;;;;;;46.70;12.60;;;4.50;99.90;;;;;;4120109;28;20030;-84
2022/01/19 09:40:37;;;;;;;39.33;11.43;;;5.60;99.90;;;;;;4118558;28;20154;-83
2022/01/19 09:42:40;;;;;;;41.28;12.25;;;5.90;99.90;;;;;;4116558;28;20047;-84
2022/01/19 09:44:41;;;;;;;36.55;13.13;;;6.00;99.90;;;;;;4143284;28;20498;-85
2022/01/19 09:46:42;;;;;;;35.40;11.32;;;6.30;99.90;;;;;;4125796;28;20191;-84
2022/01/19 09:48:43;;;;;;;33.47;11.82;;;4.90;99.90;;;;;;4139129;28;20042;-86
2022/01/19 09:50:44;;;;;;;38.50;13.35;;;4.90;99.90;;;;;;4128059;28;20434;-85
2022/01/19 09:52:45;;;;;;;35.17;12.18;;;5.10;99.90;;;;;;4148104;28;20193;-86
2022/01/19 09:54:46;;;;;;;39.20;14.70;;;5.70;99.90;;;;;;4126615;28;20561;-87
2022/01/19 09:56:48;;;;;;;41.45;13.77;;;5.10;99.90;;;;;;4129650;28;20053;-86
2022/01/19 09:58:49;;;;;;;38.55;12.63;;;5.90;99.90;;;;;;4114448;28;20047;-86
2022/01/19 10:00:51;;;;;;;38.03;12.30;;;5.00;99.90;;;;;;4119524;28;20096;-86
2022/01/19 10:03:18;;;;;;;31.60;11.70;;;4.90;99.90;;;;;;4134469;28;20074;-86
2022/01/19 10:05:19;;;;;;;47.75;13.48;;;4.90;99.90;;;;;;4129767;28;20133;-86
2022/01/19 10:07:22;;;;;;;37.58;12.63;;;6.10;99.90;;;;;;4156659;28;20046;-86
2022/01/19 10:09:29;;;;;;;37.47;13.82;;;6.30;99.90;;;;;;4144971;28;20085;-85
2022/01/19 10:18:29;;;;;;;43.45;15.05;;;5.60;99.90;;;;;;4130523;28;20061;-85
2022/01/19 10:20:30;;;;;;;44.08;14.05;;;4.80;99.90;;;;;;4116796;28;20130;-82
2022/01/19 10:22:41;;;;;;;42.67;14.05;;;4.80;99.90;;;;;;4117100;28;20110;-85
2022/01/19 10:24:48;;;;;;;40.15;13.38;;;4.80;99.90;;;;;;4107652;28;20066;-85
2022/01/19 10:26:49;;;;;;;39.47;12.32;;;5.90;99.90;;;;;;4118984;28;20114;-85
2022/01/19 10:29:10;;;;;;;35.33;13.82;;;4.80;99.90;;;;;;4146414;28;20042;-85
2022/01/19 10:31:20;;;;;;;42.85;13.80;;;4.90;99.90;;;;;;4124849;28;20042;-85
2022/01/19 10:33:20;;;;;;;38.08;13.75;;;4.70;99.90;;;;;;4122214;28;20158;-85
2022/01/19 10:35:29;;;;;;;42.45;12.95;;;6.70;99.90;;;;;;4151530;28;20057;-85
2022/01/19 10:37:30;;;;;;;47.47;14.38;;;4.70;99.90;;;;;;4155022;28;20061;-86
2022/01/19 10:39:46;;;;;;;39.83;14.48;;;5.10;99.90;;;;;;4138169;28;20527;-87
2022/01/19 10:42:00;;;;;;;41.10;13.95;;;4.70;99.90;;;;;;4143758;28;20052;-85
2022/01/19 10:44:03;;;;;;;39.40;13.63;;;4.70;99.90;;;;;;4130318;28;20078;-86
2022/01/19 10:46:25;;;;;;;50.17;15.40;;;4.80;99.90;;;;;;4154386;28;20057;-86
2022/01/19 10:48:38;;;;;;;46.95;16.33;;;4.70;99.90;;;;;;4118848;28;20181;-86
2022/01/19 10:50:40;;;;;;;38.42;14.18;;;4.80;99.90;;;;;;4135731;28;20057;-84
2022/01/19 10:52:44;;;;;;;43.97;13.93;;;4.80;99.90;;;;;;4118690;28;20459;-84
2022/01/19 10:54:48;;;;;;;40.05;13.85;;;6.30;99.90;;;;;;4134433;28;20085;-84
2022/01/19 10:56:54;;;;;;;36.17;13.43;;;6.20;99.90;;;;;;4118085;28;20057;-84
2022/01/19 10:59:08;;;;;;;44.95;15.40;;;5.70;99.90;;;;;;4152039;28;20042;-84
2022/01/19 11:01:09;;;;;;;43.85;14.40;;;5.80;99.90;;;;;;4151779;28;20042;-86
2022/01/19 11:03:17;;;;;;;42.95;13.88;;;5.20;99.90;;;;;;4140182;28;20541;-85
2022/01/19 11:05:46;;;;;;;43.78;14.50;;;4.90;99.90;;;;;;4117139;28;20050;-86
2022/01/19 11:07:46;;;;;;;48.17;14.57;;;4.80;99.90;;;;;;4127847;28;20081;-85
2022/01/19 11:09:59;;;;;;;39.65;14.15;;;4.90;99.90;;;;;;4130233;28;20109;-85
2022/01/19 11:12:13;;;;;;;53.15;15.63;;;4.90;99.90;;;;;;4133837;28;20113;-86
2022/01/19 11:14:16;;;;;;;42.65;14.07;;;4.90;99.90;;;;;;4134858;28;20495;-84
2022/01/19 11:16:18;;;;;;;38.03;13.77;;;4.90;99.90;;;;;;4152001;28;20038;-85
2022/01/19 11:18:22;;;;;;;40.67;14.00;;;5.00;99.90;;;;;;4135189;28;20458;-87
2022/01/19 11:20:24;;;;;;;43.60;14.98;;;5.20;99.90;;;;;;4135046;28;20085;-85
2022/01/19 11:22:34;;;;;;;44.15;14.45;;;5.80;99.90;;;;;;4134740;28;20048;-87
2022/01/19 11:25:14;;;;;;;38.47;13.52;;;5.00;99.90;;;;;;4122508;28;20050;-85
2022/01/19 11:27:19;;;;;;;42.15;14.48;;;5.00;99.90;;;;;;4132275;28;20057;-86
2022/01/19 11:29:23;;;;;;;46.53;14.80;;;5.50;99.90;;;;;;4116919;28;20058;-86
2022/01/19 11:31:24;;;;;;;42.80;14.30;;;5.10;99.90;;;;;;4116093;28;20050;-87
2022/01/19 11:33:28;;;;;;;46.67;14.52;;;6.60;99.90;;;;;;4150353;28;20061;-86
2022/01/19 11:35:34;;;;;;;40.35;14.93;;;5.20;99.90;;;;;;4116338;28;20506;-86
2022/01/19 11:37:38;;;;;;;43.08;15.13;;;6.00;99.90;;;;;;4133730;28;20053;-86
2022/01/19 11:40:02;;;;;;;39.97;15.07;;;6.50;99.90;;;;;;4127410;28;20049;-86
2022/01/19 11:42:05;;;;;;;39.03;14.23;;;5.40;99.90;;;;;;4132986;28;20053;-86
2022/01/19 11:44:12;;;;;;;41.40;14.95;;;5.40;99.90;;;;;;4116572;28;20408;-86
2022/01/19 11:46:28;;;;;;;42.20;16.13;;;5.50;99.90;;;;;;4133511;28;20053;-86
2022/01/19 11:48:37;;;;;;;38.85;13.65;;;5.50;99.90;;;;;;4116240;28;20055;-86
2022/01/19 11:50:38;;;;;;;41.20;14.23;;;5.60;99.90;;;;;;4134644;28;20054;-86
2022/01/19 11:52:40;;;;;;;34.65;13.80;;;6.40;99.90;;;;;;4132343;28;20054;-87
2022/01/19 11:54:43;;;;;;;41.40;13.25;;;5.60;99.90;;;;;;4115675;28;20539;-86
2022/01/19 11:56:58;;;;;;;42.50;15.63;;;5.70;99.90;;;;;;4130982;28;20070;-86
2022/01/19 11:59:08;;;;;;;50.25;15.68;;;5.70;99.90;;;;;;4114386;28;20507;-86
2022/01/19 12:01:22;;;;;;;36.90;12.95;;;5.70;99.90;;;;;;4131906;28;20046;-86